Saturday, November 18, 2017, 11:44 PM EST
Back to Local

KTTN, Trenton Mercer County Airport

Location: Trenton, NJ, United States Lat: 40.283
Local Time: 11:44 PM EST ( 4:44 GMT) Lon: -74.817
Time Zone: US/Eastern Elev: 213 ft

Show me the last for .
Show Decoded

2017-11-18 22:53 METAR KTTN 190353Z AUTO 17007KT 10SM FEW095 11/08 A2941 RMK AO2 SLP956 T01060083
                 =
2017-11-18 21:53 METAR KTTN 190253Z 16005KT 10SM FEW110 09/07 A2947 RMK AO2 SLP973 60001
                 T00890072 58042 =
2017-11-18 20:53 METAR KTTN 190153Z 14005KT 10SM FEW100 08/07 A2951 RMK AO2 RAE0054B25E35 SLP987
                 P0000 T00830072 =
2017-11-18 19:53 METAR KTTN 190053Z 14004KT 10SM -RA SCT090 BKN110 08/07 A2955 RMK AO2
                 RAB2355E04B30 SLP002 P0001 T00830067 =
2017-11-18 18:53 METAR KTTN 182353Z 15005KT 10SM OVC060 09/07 A2959 RMK AO2 RAE21 SLP015 P0000
                 60020 T00890067 10100 20078 58020 =
2017-11-18 17:53 METAR KTTN 182253Z 00000KT 5SM -RA BR OVC065 08/07 A2962 RMK AO2 SLP024 P0011
                 T00780072 =
2017-11-18 16:53 METAR KTTN 182153Z 00000KT 5SM -RA BR BKN055 BKN065 OVC080 08/07 A2964 RMK AO2
                 SLP031 P0006 T00830067 =
2017-11-18 15:53 METAR KTTN 182053Z 00000KT 9SM -RA FEW060 BKN075 OVC100 09/05 A2965 RMK AO2
                 SLP035 P0001 60003 T00940050 56034 =
2017-11-18 14:53 METAR KTTN 181953Z 18007KT 10SM -RA FEW060 OVC090 10/04 A2967 RMK AO2 SLP041
                 P0000 T01000044 =
2017-11-18 13:53 METAR KTTN 181853Z 20004KT 7SM -RA BKN070 OVC090 09/06 A2971 RMK AO2 SLP056
                 P0002 T00940056 =
2017-11-18 12:53 METAR KTTN 181753Z 17008KT 10SM -RA OVC095 10/03 A2975 RMK AO2 RAB25 SLP069
                 P0000 60000 T01000033 10100 21017 58049 =
2017-11-18 11:53 METAR KTTN 181653Z 20012G16KT 10SM CLR 09/03 A2980 RMK AO2 SLP087 T00940028 =
2017-11-18 10:53 METAR KTTN 181553Z 18006KT 10SM CLR 07/03 A2987 RMK AO2 SLP110 T00720028 =
2017-11-18 09:53 METAR KTTN 181453Z 00000KT 10SM CLR 04/01 A2989 RMK AO2 SLP118 T00390011 58028 =
2017-11-18 08:53 METAR KTTN 181353Z 00000KT 10SM CLR 02/M01 A2993 RMK AO2 SLP131 T00221006 =
2017-11-18 07:53 METAR KTTN 181253Z 00000KT 9SM CLR M01/M02 A2995 RMK AO2 SLP138 T10061022 =
2017-11-18 06:53 METAR KTTN 181153Z 00000KT 10SM CLR M01/M03 A2998 RMK AO2 SLP147 T10111033 10000
                 21033 58008 =
2017-11-18 05:53 METAR KTTN 181053Z 00000KT 10SM CLR M02/M04 A2999 RMK AO2 SLP152 T10221044 =
2017-11-18 04:53 METAR KTTN 180953Z AUTO 00000KT 10SM CLR M02/M04 A3001 RMK AO2 SLP158 T10171044
                 =
2017-11-18 03:53 METAR KTTN 180853Z AUTO 00000KT 10SM CLR M02/M05 A3000 RMK AO2 SLP155 T10171050
                 56017 =
2017-11-18 02:53 METAR KTTN 180753Z AUTO 00000KT 10SM CLR M01/M04 A3001 RMK AO2 SLP157 T10111039
                 =
2017-11-18 01:53 METAR KTTN 180653Z AUTO 00000KT 10SM CLR M01/M04 A3004 RMK AO2 SLP166 T10111044
                 =
2017-11-18 00:53 METAR KTTN 180553Z AUTO 10SM CLR M01/M04 A3005 RMK AO2 SLP171 T10061044 10056
                 21017 58013 =
2017-11-17 23:53 METAR KTTN 180453Z AUTO 33003KT 10SM CLR M01/M04 A3007 RMK AO2 SLP178 T10061044
                 400941011 =

Support USWX by starting your Amazon purchase here.